Taberg, New York
Current Conditions -  °F | °C
As of 5:53 PM on Wednesday 22 Oct 2014 (Local Time) from KRME Reporting Station
Overcast Overcast  
Wind Chill: 50°   Ceiling: 2200
Heat Index: 50°   Visibility: 10mi
Dew Point: 43°   Wind: 3mph
Humidity: 77%   Direction: NA
Pressure: 30.1"   Gusts: NA
Location:  43.3°N, 75.62°W
Report Text: KRME 222153Z VRB03KT 10SM BKN022 OVC060 10/06 A3010 RMK AO2 RAB29E40 SLP193 P0000 T01000061
Loading
Personal Weather Stations






























Interactive Weather Map New forecast layout! Learn more

10-Day Weather Forecast

Advertisements
Track Severe Weather on mobile